Portada
METAR-TAF:

METAR-TAF

Aeropuertos :

Aeropuerto Internacional de Bania Luka

Bania Luka, Bosnia y Herzegovina

latitud: 44-47N, longitud: 017-13E, altitud: 156 m

Observación

El informe se hizo hace 57 minutos, a las 19:00 UTC
Viento 5 kt del este
Temperatura 11°C
Humedad 54%
Presión 1014 hPa
Visibilidad 10 km o más
sin nubes por debajo de 1500 m y sin presencia de cumulonimbus.

METAR: LQBK 211900Z 10005KT CAVOK 11/02 Q1014 NOSIG

Hora: 20:57 (19:57 UTC)

Pronóstico

El informe se hizo hace 2 horas y 57 minutos, a las 17:00 UTC
Pronóstico válido del 21 a las 18 UTC al 22 a las 18 UTC
Viento 8 kt del sur
Visibilidad 10 km o más
sin nubes por debajo de 1500 m y sin presencia de cumulonimbus.
Probabilidad 40% :
Temporalmente
del 21 a las 18 UTC al 22 a las 18 UTC
Viento 15 kt del suroeste con ráfagas de 25 kt

TAF: LQBK 211700Z 2118/2218 17008KT CAVOK TX16/2213Z TN06/2206Z PROB40 TEMPO 2118/2218 23015G25KT

Observaciones y pronósticos meteorológicos de más de 4000 aeropuertos (mensajes METAR y TAF).

Los puntos amarillos y rojos representan las estaciones disponibles.

Ponga el ratón en el punto deseado para ver el nombre de la estación.

Haga clic para ver las observaciones y los pronósticos meteorológicos.

Para cambiar el mapa : haga clic en los botones verdes con una cruz de color negro para hacer un zoom, en el botón verde con un guión para alejar o en las flechas verdes para mapas adyacentes.


METAR-TAF: